sensor_id;sensor_type;location;lat;lon;timestamp;P1;durP1;ratioP1;P2;durP2;ratioP2
41568;SDS011;27283;52.504;13.358;2023-07-20T00:01:50;15.35;;;8.93;;
41568;SDS011;27283;52.504;13.358;2023-07-20T00:04:46;15.52;;;9.90;;
41568;SDS011;27283;52.504;13.358;2023-07-20T00:07:19;16.05;;;10.23;;
41568;SDS011;27283;52.504;13.358;2023-07-20T00:09:52;15.80;;;10.20;;
41568;SDS011;27283;52.504;13.358;2023-07-20T00:12:24;15.80;;;10.40;;
41568;SDS011;27283;52.504;13.358;2023-07-20T00:14:56;21.13;;;11.10;;
41568;SDS011;27283;52.504;13.358;2023-07-20T00:17:31;20.40;;;11.63;;
41568;SDS011;27283;52.504;13.358;2023-07-20T00:20:11;18.80;;;11.57;;
41568;SDS011;27283;52.504;13.358;2023-07-20T00:22:45;18.27;;;12.30;;
41568;SDS011;27283;52.504;13.358;2023-07-20T00:25:22;19.30;;;13.40;;
41568;SDS011;27283;52.504;13.358;2023-07-20T00:27:55;18.30;;;12.63;;
41568;SDS011;27283;52.504;13.358;2023-07-20T00:30:30;21.33;;;12.27;;
41568;SDS011;27283;52.504;13.358;2023-07-20T00:33:03;18.02;;;11.13;;
41568;SDS011;27283;52.504;13.358;2023-07-20T00:35:43;23.60;;;12.77;;
41568;SDS011;27283;52.504;13.358;2023-07-20T00:38:16;16.08;;;10.93;;
41568;SDS011;27283;52.504;13.358;2023-07-20T00:40:49;21.92;;;11.75;;
41568;SDS011;27283;52.504;13.358;2023-07-20T00:43:21;19.70;;;12.38;;
41568;SDS011;27283;52.504;13.358;2023-07-20T00:45:53;15.60;;;11.55;;
41568;SDS011;27283;52.504;13.358;2023-07-20T00:48:27;15.48;;;11.65;;
41568;SDS011;27283;52.504;13.358;2023-07-20T00:51:02;17.98;;;11.35;;
41568;SDS011;27283;52.504;13.358;2023-07-20T00:53:35;19.05;;;12.07;;
41568;SDS011;27283;52.504;13.358;2023-07-20T00:56:10;16.33;;;11.27;;
41568;SDS011;27283;52.504;13.358;2023-07-20T00:58:43;17.95;;;12.18;;
41568;SDS011;27283;52.504;13.358;2023-07-20T01:04:03;17.92;;;11.30;;
41568;SDS011;27283;52.504;13.358;2023-07-20T01:06:52;21.58;;;11.85;;
41568;SDS011;27283;52.504;13.358;2023-07-20T01:09:31;17.67;;;12.10;;
41568;SDS011;27283;52.504;13.358;2023-07-20T01:12:07;21.38;;;12.70;;
41568;SDS011;27283;52.504;13.358;2023-07-20T01:15:17;16.30;;;11.77;;
41568;SDS011;27283;52.504;13.358;2023-07-20T01:17:53;19.02;;;12.20;;
41568;SDS011;27283;52.504;13.358;2023-07-20T01:20:27;25.35;;;13.20;;
41568;SDS011;27283;52.504;13.358;2023-07-20T01:23:12;17.33;;;12.32;;
41568;SDS011;27283;52.504;13.358;2023-07-20T01:26:36;18.23;;;12.20;;
41568;SDS011;27283;52.504;13.358;2023-07-20T01:29:29;20.20;;;11.88;;
41568;SDS011;27283;52.504;13.358;2023-07-20T01:32:30;16.95;;;10.90;;
41568;SDS011;27283;52.504;13.358;2023-07-20T01:35:11;18.90;;;13.02;;
41568;SDS011;27283;52.504;13.358;2023-07-20T01:37:47;17.98;;;12.32;;
41568;SDS011;27283;52.504;13.358;2023-07-20T01:40:20;16.08;;;12.20;;
41568;SDS011;27283;52.504;13.358;2023-07-20T01:42:54;15.05;;;11.45;;
41568;SDS011;27283;52.504;13.358;2023-07-20T01:45:26;17.27;;;10.63;;
41568;SDS011;27283;52.504;13.358;2023-07-20T01:48:02;17.02;;;12.40;;
41568;SDS011;27283;52.504;13.358;2023-07-20T01:50:35;17.92;;;12.00;;
41568;SDS011;27283;52.504;13.358;2023-07-20T01:53:07;18.05;;;12.80;;
41568;SDS011;27283;52.504;13.358;2023-07-20T01:55:40;16.88;;;12.38;;
41568;SDS011;27283;52.504;13.358;2023-07-20T01:58:13;18.45;;;12.80;;
41568;SDS011;27283;52.504;13.358;2023-07-20T02:00:45;19.73;;;13.35;;
41568;SDS011;27283;52.504;13.358;2023-07-20T02:03:22;18.00;;;13.10;;
41568;SDS011;27283;52.504;13.358;2023-07-20T02:06:16;20.60;;;13.43;;
41568;SDS011;27283;52.504;13.358;2023-07-20T02:08:50;20.02;;;12.65;;
41568;SDS011;27283;52.504;13.358;2023-07-20T02:11:22;21.08;;;13.27;;
41568;SDS011;27283;52.504;13.358;2023-07-20T02:13:55;19.85;;;13.85;;
41568;SDS011;27283;52.504;13.358;2023-07-20T02:16:27;19.92;;;13.05;;
41568;SDS011;27283;52.504;13.358;2023-07-20T02:19:03;20.27;;;13.15;;
41568;SDS011;27283;52.504;13.358;2023-07-20T02:21:36;18.67;;;13.15;;
41568;SDS011;27283;52.504;13.358;2023-07-20T02:24:08;18.23;;;13.52;;
41568;SDS011;27283;52.504;13.358;2023-07-20T02:26:40;22.10;;;13.95;;
41568;SDS011;27283;52.504;13.358;2023-07-20T02:29:16;19.60;;;13.57;;
41568;SDS011;27283;52.504;13.358;2023-07-20T02:32:21;21.92;;;14.00;;
41568;SDS011;27283;52.504;13.358;2023-07-20T02:34:56;29.63;;;16.17;;
41568;SDS011;27283;52.504;13.358;2023-07-20T02:37:28;27.33;;;16.98;;
41568;SDS011;27283;52.504;13.358;2023-07-20T02:40:01;24.83;;;17.58;;
41568;SDS011;27283;52.504;13.358;2023-07-20T02:42:35;29.42;;;17.50;;
41568;SDS011;27283;52.504;13.358;2023-07-20T02:45:08;26.08;;;17.80;;
41568;SDS011;27283;52.504;13.358;2023-07-20T02:47:41;24.33;;;16.73;;
41568;SDS011;27283;52.504;13.358;2023-07-20T02:50:16;23.55;;;15.23;;
41568;SDS011;27283;52.504;13.358;2023-07-20T02:52:49;19.15;;;15.18;;
41568;SDS011;27283;52.504;13.358;2023-07-20T02:55:21;19.58;;;14.65;;
41568;SDS011;27283;52.504;13.358;2023-07-20T02:57:54;23.73;;;14.90;;
41568;SDS011;27283;52.504;13.358;2023-07-20T03:00:51;25.40;;;17.35;;
41568;SDS011;27283;52.504;13.358;2023-07-20T03:03:23;25.83;;;17.50;;
41568;SDS011;27283;52.504;13.358;2023-07-20T03:05:59;28.33;;;18.17;;
41568;SDS011;27283;52.504;13.358;2023-07-20T03:08:37;31.38;;;20.38;;
41568;SDS011;27283;52.504;13.358;2023-07-20T03:11:11;32.75;;;20.40;;
41568;SDS011;27283;52.504;13.358;2023-07-20T03:13:50;34.72;;;21.63;;
41568;SDS011;27283;52.504;13.358;2023-07-20T03:16:29;33.83;;;23.45;;
41568;SDS011;27283;52.504;13.358;2023-07-20T03:19:02;31.85;;;21.27;;
41568;SDS011;27283;52.504;13.358;2023-07-20T03:21:37;34.25;;;21.80;;
41568;SDS011;27283;52.504;13.358;2023-07-20T03:24:10;32.10;;;21.15;;
41568;SDS011;27283;52.504;13.358;2023-07-20T03:26:43;39.47;;;24.02;;
41568;SDS011;27283;52.504;13.358;2023-07-20T03:29:22;35.15;;;23.20;;
41568;SDS011;27283;52.504;13.358;2023-07-20T03:33:11;30.63;;;20.48;;
41568;SDS011;27283;52.504;13.358;2023-07-20T03:36:34;35.28;;;22.90;;
41568;SDS011;27283;52.504;13.358;2023-07-20T03:39:14;32.33;;;21.70;;
41568;SDS011;27283;52.504;13.358;2023-07-20T03:41:50;29.95;;;20.52;;
41568;SDS011;27283;52.504;13.358;2023-07-20T03:44:22;33.63;;;20.60;;
41568;SDS011;27283;52.504;13.358;2023-07-20T03:46:56;31.13;;;21.38;;
41568;SDS011;27283;52.504;13.358;2023-07-20T03:49:29;37.47;;;23.17;;
41568;SDS011;27283;52.504;13.358;2023-07-20T03:52:06;31.25;;;21.08;;
41568;SDS011;27283;52.504;13.358;2023-07-20T03:54:55;27.25;;;17.90;;
41568;SDS011;27283;52.504;13.358;2023-07-20T03:57:47;26.20;;;17.70;;
41568;SDS011;27283;52.504;13.358;2023-07-20T04:00:26;28.83;;;18.77;;
41568;SDS011;27283;52.504;13.358;2023-07-20T04:02:58;25.70;;;16.92;;
41568;SDS011;27283;52.504;13.358;2023-07-20T04:05:31;23.85;;;16.48;;
41568;SDS011;27283;52.504;13.358;2023-07-20T04:08:06;23.25;;;15.82;;
41568;SDS011;27283;52.504;13.358;2023-07-20T04:10:42;24.80;;;15.95;;
41568;SDS011;27283;52.504;13.358;2023-07-20T04:13:15;22.40;;;15.85;;
41568;SDS011;27283;52.504;13.358;2023-07-20T04:15:48;24.08;;;15.82;;
41568;SDS011;27283;52.504;13.358;2023-07-20T04:18:28;23.10;;;15.73;;
41568;SDS011;27283;52.504;13.358;2023-07-20T04:22:26;23.30;;;15.63;;
41568;SDS011;27283;52.504;13.358;2023-07-20T04:25:02;27.58;;;17.98;;
41568;SDS011;27283;52.504;13.358;2023-07-20T04:27:39;23.90;;;17.05;;
41568;SDS011;27283;52.504;13.358;2023-07-20T04:30:12;29.65;;;18.50;;
41568;SDS011;27283;52.504;13.358;2023-07-20T04:33:24;28.48;;;18.13;;
41568;SDS011;27283;52.504;13.358;2023-07-20T04:35:58;26.98;;;16.95;;
41568;SDS011;27283;52.504;13.358;2023-07-20T04:38:30;21.65;;;15.60;;
41568;SDS011;27283;52.504;13.358;2023-07-20T04:41:06;23.80;;;15.25;;
41568;SDS011;27283;52.504;13.358;2023-07-20T04:43:41;19.88;;;13.93;;
41568;SDS011;27283;52.504;13.358;2023-07-20T04:46:14;21.00;;;14.05;;
41568;SDS011;27283;52.504;13.358;2023-07-20T04:48:47;19.85;;;13.93;;
41568;SDS011;27283;52.504;13.358;2023-07-20T04:51:20;20.13;;;13.98;;
41568;SDS011;27283;52.504;13.358;2023-07-20T04:53:52;20.98;;;13.63;;
41568;SDS011;27283;52.504;13.358;2023-07-20T04:56:28;20.63;;;13.15;;
41568;SDS011;27283;52.504;13.358;2023-07-20T04:59:00;19.90;;;12.75;;
41568;SDS011;27283;52.504;13.358;2023-07-20T05:01:33;16.50;;;12.23;;
41568;SDS011;27283;52.504;13.358;2023-07-20T05:04:05;18.10;;;11.70;;
41568;SDS011;27283;52.504;13.358;2023-07-20T05:06:38;12.98;;;10.20;;
41568;SDS011;27283;52.504;13.358;2023-07-20T05:09:10;15.90;;;9.30;;
41568;SDS011;27283;52.504;13.358;2023-07-20T05:12:28;14.63;;;9.65;;
41568;SDS011;27283;52.504;13.358;2023-07-20T05:15:00;13.98;;;9.98;;
41568;SDS011;27283;52.504;13.358;2023-07-20T05:17:33;14.45;;;10.43;;
41568;SDS011;27283;52.504;13.358;2023-07-20T05:20:06;13.95;;;9.90;;
41568;SDS011;27283;52.504;13.358;2023-07-20T05:22:41;16.48;;;10.80;;
41568;SDS011;27283;52.504;13.358;2023-07-20T05:25:14;14.88;;;9.50;;
41568;SDS011;27283;52.504;13.358;2023-07-20T05:27:50;15.82;;;8.95;;
41568;SDS011;27283;52.504;13.358;2023-07-20T05:30:24;12.30;;;7.95;;
41568;SDS011;27283;52.504;13.358;2023-07-20T05:32:57;12.02;;;8.02;;
41568;SDS011;27283;52.504;13.358;2023-07-20T05:35:30;14.50;;;8.88;;
41568;SDS011;27283;52.504;13.358;2023-07-20T05:38:02;14.52;;;9.25;;
41568;SDS011;27283;52.504;13.358;2023-07-20T05:40:37;12.15;;;6.85;;
41568;SDS011;27283;52.504;13.358;2023-07-20T05:43:12;14.45;;;8.25;;
41568;SDS011;27283;52.504;13.358;2023-07-20T05:45:44;12.73;;;7.60;;
41568;SDS011;27283;52.504;13.358;2023-07-20T05:48:17;14.90;;;9.35;;
41568;SDS011;27283;52.504;13.358;2023-07-20T05:50:52;17.75;;;9.77;;
41568;SDS011;27283;52.504;13.358;2023-07-20T05:53:24;12.85;;;9.50;;
41568;SDS011;27283;52.504;13.358;2023-07-20T05:55:56;14.00;;;9.48;;
41568;SDS011;27283;52.504;13.358;2023-07-20T05:58:34;15.63;;;10.65;;
41568;SDS011;27283;52.504;13.358;2023-07-20T06:01:06;18.52;;;10.45;;
41568;SDS011;27283;52.504;13.358;2023-07-20T06:03:38;18.10;;;10.63;;
41568;SDS011;27283;52.504;13.358;2023-07-20T06:06:10;14.48;;;10.82;;
41568;SDS011;27283;52.504;13.358;2023-07-20T06:08:43;14.85;;;9.93;;
41568;SDS011;27283;52.504;13.358;2023-07-20T06:11:15;14.88;;;10.50;;
41568;SDS011;27283;52.504;13.358;2023-07-20T06:16:40;18.25;;;11.35;;
41568;SDS011;27283;52.504;13.358;2023-07-20T06:19:13;18.58;;;12.85;;
41568;SDS011;27283;52.504;13.358;2023-07-20T06:21:48;18.13;;;11.38;;
41568;SDS011;27283;52.504;13.358;2023-07-20T06:24:20;14.13;;;9.95;;
41568;SDS011;27283;52.504;13.358;2023-07-20T06:26:53;13.10;;;9.82;;
41568;SDS011;27283;52.504;13.358;2023-07-20T06:29:28;16.05;;;9.73;;
41568;SDS011;27283;52.504;13.358;2023-07-20T06:32:00;14.15;;;9.50;;
41568;SDS011;27283;52.504;13.358;2023-07-20T06:34:32;13.23;;;8.32;;
41568;SDS011;27283;52.504;13.358;2023-07-20T06:37:06;11.18;;;7.20;;
41568;SDS011;27283;52.504;13.358;2023-07-20T06:39:41;11.00;;;7.15;;
41568;SDS011;27283;52.504;13.358;2023-07-20T06:42:17;11.75;;;6.05;;
41568;SDS011;27283;52.504;13.358;2023-07-20T06:44:51;9.52;;;6.10;;
41568;SDS011;27283;52.504;13.358;2023-07-20T06:47:24;11.35;;;6.00;;
41568;SDS011;27283;52.504;13.358;2023-07-20T06:49:56;8.25;;;5.45;;
41568;SDS011;27283;52.504;13.358;2023-07-20T06:52:28;10.35;;;4.97;;
41568;SDS011;27283;52.504;13.358;2023-07-20T06:55:00;8.05;;;5.18;;
41568;SDS011;27283;52.504;13.358;2023-07-20T06:57:33;7.47;;;4.05;;
41568;SDS011;27283;52.504;13.358;2023-07-20T07:00:09;5.22;;;3.33;;
41568;SDS011;27283;52.504;13.358;2023-07-20T07:02:42;6.43;;;3.08;;
41568;SDS011;27283;52.504;13.358;2023-07-20T07:05:17;4.65;;;3.10;;
41568;SDS011;27283;52.504;13.358;2023-07-20T07:07:50;5.10;;;2.30;;
41568;SDS011;27283;52.504;13.358;2023-07-20T07:10:22;6.30;;;2.17;;
41568;SDS011;27283;52.504;13.358;2023-07-20T07:12:54;5.90;;;2.50;;
41568;SDS011;27283;52.504;13.358;2023-07-20T07:15:29;6.15;;;2.83;;
41568;SDS011;27283;52.504;13.358;2023-07-20T07:18:03;5.95;;;2.22;;
41568;SDS011;27283;52.504;13.358;2023-07-20T07:20:36;3.25;;;1.60;;
41568;SDS011;27283;52.504;13.358;2023-07-20T07:23:10;2.17;;;1.45;;
41568;SDS011;27283;52.504;13.358;2023-07-20T07:25:59;2.88;;;1.13;;
41568;SDS011;27283;52.504;13.358;2023-07-20T07:28:31;6.40;;;1.63;;
41568;SDS011;27283;52.504;13.358;2023-07-20T07:31:07;1.95;;;1.27;;
41568;SDS011;27283;52.504;13.358;2023-07-20T07:33:39;4.97;;;1.90;;
41568;SDS011;27283;52.504;13.358;2023-07-20T07:36:19;5.10;;;1.80;;
41568;SDS011;27283;52.504;13.358;2023-07-20T07:38:55;6.05;;;1.90;;
41568;SDS011;27283;52.504;13.358;2023-07-20T07:41:47;4.50;;;1.67;;
41568;SDS011;27283;52.504;13.358;2023-07-20T07:44:20;3.92;;;1.33;;
41568;SDS011;27283;52.504;13.358;2023-07-20T07:46:55;2.22;;;1.60;;
41568;SDS011;27283;52.504;13.358;2023-07-20T07:49:27;2.70;;;1.40;;
41568;SDS011;27283;52.504;13.358;2023-07-20T07:52:03;3.05;;;1.00;;
41568;SDS011;27283;52.504;13.358;2023-07-20T07:54:37;3.17;;;1.17;;
41568;SDS011;27283;52.504;13.358;2023-07-20T07:57:21;2.47;;;1.17;;
41568;SDS011;27283;52.504;13.358;2023-07-20T07:59:54;2.25;;;1.20;;
41568;SDS011;27283;52.504;13.358;2023-07-20T08:02:29;3.55;;;1.20;;
41568;SDS011;27283;52.504;13.358;2023-07-20T08:05:02;2.00;;;1.23;;
41568;SDS011;27283;52.504;13.358;2023-07-20T08:07:35;5.47;;;1.42;;
41568;SDS011;27283;52.504;13.358;2023-07-20T08:10:08;3.97;;;1.33;;
41568;SDS011;27283;52.504;13.358;2023-07-20T08:12:41;1.70;;;1.35;;
41568;SDS011;27283;52.504;13.358;2023-07-20T08:15:13;3.28;;;1.20;;
41568;SDS011;27283;52.504;13.358;2023-07-20T08:17:59;3.03;;;1.33;;
41568;SDS011;27283;52.504;13.358;2023-07-20T08:20:36;4.97;;;1.95;;
41568;SDS011;27283;52.504;13.358;2023-07-20T08:23:09;2.05;;;1.60;;
41568;SDS011;27283;52.504;13.358;2023-07-20T08:25:42;4.18;;;1.60;;
41568;SDS011;27283;52.504;13.358;2023-07-20T08:28:15;6.38;;;1.75;;
41568;SDS011;27283;52.504;13.358;2023-07-20T08:30:48;2.85;;;1.75;;
41568;SDS011;27283;52.504;13.358;2023-07-20T08:33:24;2.83;;;1.30;;
41568;SDS011;27283;52.504;13.358;2023-07-20T08:36:04;3.50;;;1.42;;
41568;SDS011;27283;52.504;13.358;2023-07-20T08:38:39;3.78;;;1.10;;
41568;SDS011;27283;52.504;13.358;2023-07-20T08:41:12;1.80;;;1.15;;
41568;SDS011;27283;52.504;13.358;2023-07-20T08:43:44;1.58;;;1.00;;
41568;SDS011;27283;52.504;13.358;2023-07-20T08:46:27;3.40;;;1.13;;
41568;SDS011;27283;52.504;13.358;2023-07-20T08:51:56;1.83;;;1.00;;
41568;SDS011;27283;52.504;13.358;2023-07-20T08:54:30;1.83;;;0.80;;
41568;SDS011;27283;52.504;13.358;2023-07-20T08:57:07;1.20;;;0.80;;
41568;SDS011;27283;52.504;13.358;2023-07-20T08:59:44;2.30;;;0.88;;
41568;SDS011;27283;52.504;13.358;2023-07-20T09:02:17;2.05;;;0.98;;
41568;SDS011;27283;52.504;13.358;2023-07-20T09:04:54;1.30;;;0.82;;
41568;SDS011;27283;52.504;13.358;2023-07-20T09:07:27;0.90;;;0.80;;
41568;SDS011;27283;52.504;13.358;2023-07-20T09:12:49;2.15;;;0.98;;
41568;SDS011;27283;52.504;13.358;2023-07-20T09:15:21;3.33;;;1.00;;
41568;SDS011;27283;52.504;13.358;2023-07-20T09:17:54;2.78;;;0.90;;
41568;SDS011;27283;52.504;13.358;2023-07-20T09:20:34;1.25;;;0.75;;
41568;SDS011;27283;52.504;13.358;2023-07-20T09:23:08;3.00;;;0.80;;
41568;SDS011;27283;52.504;13.358;2023-07-20T09:25:41;1.65;;;0.90;;
41568;SDS011;27283;52.504;13.358;2023-07-20T09:28:15;2.17;;;0.63;;
41568;SDS011;27283;52.504;13.358;2023-07-20T09:30:47;3.80;;;0.80;;
41568;SDS011;27283;52.504;13.358;2023-07-20T09:33:21;6.05;;;0.90;;
41568;SDS011;27283;52.504;13.358;2023-07-20T09:36:06;2.15;;;0.70;;
41568;SDS011;27283;52.504;13.358;2023-07-20T09:39:07;3.70;;;0.80;;
41568;SDS011;27283;52.504;13.358;2023-07-20T09:41:43;1.48;;;0.75;;
41568;SDS011;27283;52.504;13.358;2023-07-20T09:44:18;3.85;;;0.82;;
41568;SDS011;27283;52.504;13.358;2023-07-20T09:46:58;1.92;;;1.10;;
41568;SDS011;27283;52.504;13.358;2023-07-20T09:49:37;1.80;;;1.00;;
41568;SDS011;27283;52.504;13.358;2023-07-20T09:52:20;3.30;;;0.93;;
41568;SDS011;27283;52.504;13.358;2023-07-20T09:54:58;2.15;;;1.00;;
41568;SDS011;27283;52.504;13.358;2023-07-20T09:57:44;3.30;;;1.08;;
41568;SDS011;27283;52.504;13.358;2023-07-20T10:00:17;2.92;;;1.10;;
41568;SDS011;27283;52.504;13.358;2023-07-20T10:02:54;2.42;;;1.10;;
41568;SDS011;27283;52.504;13.358;2023-07-20T10:05:32;1.92;;;1.13;;
41568;SDS011;27283;52.504;13.358;2023-07-20T10:08:14;2.22;;;1.20;;
41568;SDS011;27283;52.504;13.358;2023-07-20T10:11:07;3.38;;;1.50;;
41568;SDS011;27283;52.504;13.358;2023-07-20T10:13:41;1.10;;;0.98;;
41568;SDS011;27283;52.504;13.358;2023-07-20T10:16:18;2.15;;;1.38;;
41568;SDS011;27283;52.504;13.358;2023-07-20T10:19:02;2.95;;;1.27;;
41568;SDS011;27283;52.504;13.358;2023-07-20T10:21:42;2.63;;;1.48;;
41568;SDS011;27283;52.504;13.358;2023-07-20T10:24:29;2.38;;;1.17;;
41568;SDS011;27283;52.504;13.358;2023-07-20T10:27:04;3.63;;;1.40;;
41568;SDS011;27283;52.504;13.358;2023-07-20T10:29:38;4.15;;;1.60;;
41568;SDS011;27283;52.504;13.358;2023-07-20T10:32:13;2.65;;;1.40;;
41568;SDS011;27283;52.504;13.358;2023-07-20T10:34:50;1.75;;;1.15;;
41568;SDS011;27283;52.504;13.358;2023-07-20T10:37:45;2.47;;;1.50;;
41568;SDS011;27283;52.504;13.358;2023-07-20T10:40:32;4.75;;;1.58;;
41568;SDS011;27283;52.504;13.358;2023-07-20T10:43:07;2.53;;;1.50;;
41568;SDS011;27283;52.504;13.358;2023-07-20T10:45:41;2.78;;;1.77;;
41568;SDS011;27283;52.504;13.358;2023-07-20T10:48:21;3.10;;;1.95;;
41568;SDS011;27283;52.504;13.358;2023-07-20T10:51:10;4.50;;;1.88;;
41568;SDS011;27283;52.504;13.358;2023-07-20T10:53:45;5.20;;;1.92;;
41568;SDS011;27283;52.504;13.358;2023-07-20T10:56:25;4.85;;;1.65;;
41568;SDS011;27283;52.504;13.358;2023-07-20T10:59:00;4.40;;;1.90;;
41568;SDS011;27283;52.504;13.358;2023-07-20T11:01:49;3.03;;;1.85;;
41568;SDS011;27283;52.504;13.358;2023-07-20T11:04:37;2.92;;;1.55;;
41568;SDS011;27283;52.504;13.358;2023-07-20T11:07:15;4.38;;;1.75;;
41568;SDS011;27283;52.504;13.358;2023-07-20T11:09:49;4.57;;;1.70;;
41568;SDS011;27283;52.504;13.358;2023-07-20T11:12:26;4.40;;;1.80;;
41568;SDS011;27283;52.504;13.358;2023-07-20T11:15:00;6.07;;;1.70;;
41568;SDS011;27283;52.504;13.358;2023-07-20T11:17:33;4.93;;;1.70;;
41568;SDS011;27283;52.504;13.358;2023-07-20T11:20:12;3.40;;;1.42;;
41568;SDS011;27283;52.504;13.358;2023-07-20T11:22:49;3.00;;;1.52;;
41568;SDS011;27283;52.504;13.358;2023-07-20T11:25:23;4.45;;;1.70;;
41568;SDS011;27283;52.504;13.358;2023-07-20T11:28:01;4.22;;;1.38;;
41568;SDS011;27283;52.504;13.358;2023-07-20T11:30:35;1.60;;;1.08;;
41568;SDS011;27283;52.504;13.358;2023-07-20T11:33:09;4.15;;;1.10;;
41568;SDS011;27283;52.504;13.358;2023-07-20T11:35:43;4.10;;;1.25;;
41568;SDS011;27283;52.504;13.358;2023-07-20T11:38:17;2.55;;;1.23;;
41568;SDS011;27283;52.504;13.358;2023-07-20T11:40:51;2.47;;;1.10;;
41568;SDS011;27283;52.504;13.358;2023-07-20T11:43:29;4.03;;;1.13;;
41568;SDS011;27283;52.504;13.358;2023-07-20T11:46:04;3.03;;;1.10;;
41568;SDS011;27283;52.504;13.358;2023-07-20T11:48:38;1.98;;;1.10;;
41568;SDS011;27283;52.504;13.358;2023-07-20T11:51:15;1.48;;;1.05;;
41568;SDS011;27283;52.504;13.358;2023-07-20T11:53:50;3.08;;;1.50;;
41568;SDS011;27283;52.504;13.358;2023-07-20T11:56:23;2.80;;;1.23;;
41568;SDS011;27283;52.504;13.358;2023-07-20T11:59:00;3.47;;;1.70;;
41568;SDS011;27283;52.504;13.358;2023-07-20T12:01:33;3.15;;;1.52;;
41568;SDS011;27283;52.504;13.358;2023-07-20T12:04:07;2.65;;;1.42;;
41568;SDS011;27283;52.504;13.358;2023-07-20T12:06:41;3.55;;;1.23;;
41568;SDS011;27283;52.504;13.358;2023-07-20T12:09:14;1.92;;;0.98;;
41568;SDS011;27283;52.504;13.358;2023-07-20T12:11:48;3.50;;;1.08;;
41568;SDS011;27283;52.504;13.358;2023-07-20T12:14:25;1.55;;;1.05;;
41568;SDS011;27283;52.504;13.358;2023-07-20T12:16:58;6.50;;;1.10;;
41568;SDS011;27283;52.504;13.358;2023-07-20T12:19:31;3.15;;;0.98;;
41568;SDS011;27283;52.504;13.358;2023-07-20T12:22:05;1.45;;;0.75;;
41568;SDS011;27283;52.504;13.358;2023-07-20T12:24:40;1.83;;;0.85;;
41568;SDS011;27283;52.504;13.358;2023-07-20T12:27:14;2.70;;;0.82;;
41568;SDS011;27283;52.504;13.358;2023-07-20T12:29:49;2.00;;;0.70;;
41568;SDS011;27283;52.504;13.358;2023-07-20T12:32:23;2.40;;;1.05;;
41568;SDS011;27283;52.504;13.358;2023-07-20T12:34:57;2.35;;;0.95;;
41568;SDS011;27283;52.504;13.358;2023-07-20T12:37:30;2.50;;;0.80;;
41568;SDS011;27283;52.504;13.358;2023-07-20T12:40:03;3.88;;;1.00;;
41568;SDS011;27283;52.504;13.358;2023-07-20T12:42:40;1.95;;;0.73;;
41568;SDS011;27283;52.504;13.358;2023-07-20T12:45:16;1.20;;;0.65;;
41568;SDS011;27283;52.504;13.358;2023-07-20T12:47:50;2.35;;;0.85;;
41568;SDS011;27283;52.504;13.358;2023-07-20T12:50:23;1.33;;;0.80;;
41568;SDS011;27283;52.504;13.358;2023-07-20T12:52:57;3.08;;;0.80;;
41568;SDS011;27283;52.504;13.358;2023-07-20T12:55:35;2.65;;;0.73;;
41568;SDS011;27283;52.504;13.358;2023-07-20T12:58:26;2.75;;;0.80;;
41568;SDS011;27283;52.504;13.358;2023-07-20T13:01:15;2.65;;;0.70;;
41568;SDS011;27283;52.504;13.358;2023-07-20T13:04:16;1.40;;;0.80;;
41568;SDS011;27283;52.504;13.358;2023-07-20T13:06:48;2.00;;;0.80;;
41568;SDS011;27283;52.504;13.358;2023-07-20T13:09:23;4.88;;;1.10;;
41568;SDS011;27283;52.504;13.358;2023-07-20T13:12:09;1.40;;;0.73;;
41568;SDS011;27283;52.504;13.358;2023-07-20T13:14:48;4.68;;;0.73;;
41568;SDS011;27283;52.504;13.358;2023-07-20T13:17:35;1.45;;;0.63;;
41568;SDS011;27283;52.504;13.358;2023-07-20T13:20:31;1.67;;;0.77;;
41568;SDS011;27283;52.504;13.358;2023-07-20T13:23:24;1.65;;;0.70;;
41568;SDS011;27283;52.504;13.358;2023-07-20T13:26:33;3.28;;;0.88;;
41568;SDS011;27283;52.504;13.358;2023-07-20T13:29:06;1.42;;;0.70;;
41568;SDS011;27283;52.504;13.358;2023-07-20T13:31:38;2.08;;;0.60;;
41568;SDS011;27283;52.504;13.358;2023-07-20T13:34:16;1.77;;;0.70;;
41568;SDS011;27283;52.504;13.358;2023-07-20T13:36:49;1.13;;;0.80;;
41568;SDS011;27283;52.504;13.358;2023-07-20T13:39:22;2.50;;;0.80;;
41568;SDS011;27283;52.504;13.358;2023-07-20T13:41:56;2.30;;;0.68;;
41568;SDS011;27283;52.504;13.358;2023-07-20T13:44:49;1.02;;;0.60;;
41568;SDS011;27283;52.504;13.358;2023-07-20T13:47:27;1.23;;;0.60;;
41568;SDS011;27283;52.504;13.358;2023-07-20T13:50:04;1.65;;;0.77;;
41568;SDS011;27283;52.504;13.358;2023-07-20T13:52:52;4.22;;;0.60;;
41568;SDS011;27283;52.504;13.358;2023-07-20T13:55:28;2.13;;;0.70;;
41568;SDS011;27283;52.504;13.358;2023-07-20T13:58:05;1.77;;;0.80;;
41568;SDS011;27283;52.504;13.358;2023-07-20T14:00:45;3.25;;;0.77;;
41568;SDS011;27283;52.504;13.358;2023-07-20T14:03:19;5.78;;;0.80;;
41568;SDS011;27283;52.504;13.358;2023-07-20T14:05:54;1.52;;;0.70;;
41568;SDS011;27283;52.504;13.358;2023-07-20T14:08:31;1.80;;;0.70;;
41568;SDS011;27283;52.504;13.358;2023-07-20T14:11:03;1.23;;;0.60;;
41568;SDS011;27283;52.504;13.358;2023-07-20T14:13:39;1.52;;;0.73;;
41568;SDS011;27283;52.504;13.358;2023-07-20T14:16:15;1.25;;;0.65;;
41568;SDS011;27283;52.504;13.358;2023-07-20T14:18:50;1.58;;;0.90;;
41568;SDS011;27283;52.504;13.358;2023-07-20T14:21:26;2.85;;;0.68;;
41568;SDS011;27283;52.504;13.358;2023-07-20T14:24:01;2.22;;;0.80;;
41568;SDS011;27283;52.504;13.358;2023-07-20T14:26:37;2.45;;;0.73;;
41568;SDS011;27283;52.504;13.358;2023-07-20T14:29:11;2.83;;;0.85;;
41568;SDS011;27283;52.504;13.358;2023-07-20T14:31:55;3.10;;;0.90;;
41568;SDS011;27283;52.504;13.358;2023-07-20T14:34:27;2.33;;;0.70;;
41568;SDS011;27283;52.504;13.358;2023-07-20T14:37:06;4.00;;;0.80;;
41568;SDS011;27283;52.504;13.358;2023-07-20T14:39:39;4.70;;;0.80;;
41568;SDS011;27283;52.504;13.358;2023-07-20T14:42:11;4.32;;;2.15;;
41568;SDS011;27283;52.504;13.358;2023-07-20T14:44:44;2.35;;;0.90;;
41568;SDS011;27283;52.504;13.358;2023-07-20T14:47:18;1.70;;;0.80;;
41568;SDS011;27283;52.504;13.358;2023-07-20T14:49:52;1.45;;;0.80;;
41568;SDS011;27283;52.504;13.358;2023-07-20T14:52:28;0.95;;;0.75;;
41568;SDS011;27283;52.504;13.358;2023-07-20T14:55:01;1.42;;;0.73;;
41568;SDS011;27283;52.504;13.358;2023-07-20T14:57:41;1.58;;;0.70;;
41568;SDS011;27283;52.504;13.358;2023-07-20T15:00:14;1.65;;;0.90;;
41568;SDS011;27283;52.504;13.358;2023-07-20T15:02:47;2.72;;;0.63;;
41568;SDS011;27283;52.504;13.358;2023-07-20T15:05:25;1.13;;;0.80;;
41568;SDS011;27283;52.504;13.358;2023-07-20T15:08:00;3.08;;;0.80;;
41568;SDS011;27283;52.504;13.358;2023-07-20T15:10:33;2.10;;;0.90;;
41568;SDS011;27283;52.504;13.358;2023-07-20T15:13:07;1.70;;;0.80;;
41568;SDS011;27283;52.504;13.358;2023-07-20T15:15:41;4.38;;;0.93;;
41568;SDS011;27283;52.504;13.358;2023-07-20T15:18:21;2.22;;;0.90;;
41568;SDS011;27283;52.504;13.358;2023-07-20T15:21:14;5.18;;;0.95;;
41568;SDS011;27283;52.504;13.358;2023-07-20T15:23:50;2.45;;;1.00;;
41568;SDS011;27283;52.504;13.358;2023-07-20T15:26:23;3.50;;;0.98;;
41568;SDS011;27283;52.504;13.358;2023-07-20T15:29:18;1.70;;;1.00;;
41568;SDS011;27283;52.504;13.358;2023-07-20T15:31:55;2.95;;;1.02;;
41568;SDS011;27283;52.504;13.358;2023-07-20T15:34:28;2.13;;;0.95;;